sensor_id;sensor_type;location;lat;lon;timestamp;P1;durP1;ratioP1;P2;durP2;ratioP2
13698;SDS011;6921;53.642;9.956;2023-05-10T00:01:25;3.85;;;3.42;;
13698;SDS011;6921;53.642;9.956;2023-05-10T00:03:29;4.72;;;3.28;;
13698;SDS011;6921;53.642;9.956;2023-05-10T00:05:33;3.85;;;3.30;;
13698;SDS011;6921;53.642;9.956;2023-05-10T00:07:36;5.22;;;3.10;;
13698;SDS011;6921;53.642;9.956;2023-05-10T00:09:43;3.78;;;3.38;;
13698;SDS011;6921;53.642;9.956;2023-05-10T00:11:49;3.90;;;3.50;;
13698;SDS011;6921;53.642;9.956;2023-05-10T00:13:52;5.28;;;3.47;;
13698;SDS011;6921;53.642;9.956;2023-05-10T00:15:56;3.83;;;3.42;;
13698;SDS011;6921;53.642;9.956;2023-05-10T00:18:00;4.38;;;3.15;;
13698;SDS011;6921;53.642;9.956;2023-05-10T00:20:05;4.07;;;3.30;;
13698;SDS011;6921;53.642;9.956;2023-05-10T00:22:08;3.92;;;3.40;;
13698;SDS011;6921;53.642;9.956;2023-05-10T00:24:13;5.00;;;3.55;;
13698;SDS011;6921;53.642;9.956;2023-05-10T00:26:17;5.97;;;3.40;;
13698;SDS011;6921;53.642;9.956;2023-05-10T00:28:21;6.07;;;3.67;;
13698;SDS011;6921;53.642;9.956;2023-05-10T00:30:25;6.30;;;3.38;;
13698;SDS011;6921;53.642;9.956;2023-05-10T00:32:29;4.65;;;3.50;;
13698;SDS011;6921;53.642;9.956;2023-05-10T00:34:32;4.80;;;3.63;;
13698;SDS011;6921;53.642;9.956;2023-05-10T00:36:36;4.15;;;3.72;;
13698;SDS011;6921;53.642;9.956;2023-05-10T00:38:41;3.90;;;3.35;;
13698;SDS011;6921;53.642;9.956;2023-05-10T00:40:45;4.68;;;3.80;;
13698;SDS011;6921;53.642;9.956;2023-05-10T00:42:49;4.10;;;3.65;;
13698;SDS011;6921;53.642;9.956;2023-05-10T00:44:55;4.38;;;3.53;;
13698;SDS011;6921;53.642;9.956;2023-05-10T00:46:59;4.03;;;3.40;;
13698;SDS011;6921;53.642;9.956;2023-05-10T00:49:03;4.13;;;3.72;;
13698;SDS011;6921;53.642;9.956;2023-05-10T00:51:07;3.75;;;3.45;;
13698;SDS011;6921;53.642;9.956;2023-05-10T00:53:11;3.80;;;3.45;;
13698;SDS011;6921;53.642;9.956;2023-05-10T00:55:15;4.68;;;3.55;;
13698;SDS011;6921;53.642;9.956;2023-05-10T00:57:18;4.90;;;3.42;;
13698;SDS011;6921;53.642;9.956;2023-05-10T00:59:22;3.80;;;3.40;;
13698;SDS011;6921;53.642;9.956;2023-05-10T01:01:27;4.75;;;3.50;;
13698;SDS011;6921;53.642;9.956;2023-05-10T01:03:32;3.92;;;3.40;;
13698;SDS011;6921;53.642;9.956;2023-05-10T01:05:36;4.20;;;3.80;;
13698;SDS011;6921;53.642;9.956;2023-05-10T01:07:40;5.20;;;3.47;;
13698;SDS011;6921;53.642;9.956;2023-05-10T01:09:43;4.55;;;3.58;;
13698;SDS011;6921;53.642;9.956;2023-05-10T01:11:47;4.05;;;3.63;;
13698;SDS011;6921;53.642;9.956;2023-05-10T01:13:52;3.97;;;3.58;;
13698;SDS011;6921;53.642;9.956;2023-05-10T01:15:58;4.43;;;3.47;;
13698;SDS011;6921;53.642;9.956;2023-05-10T01:18:04;4.18;;;3.55;;
13698;SDS011;6921;53.642;9.956;2023-05-10T01:20:09;5.70;;;3.58;;
13698;SDS011;6921;53.642;9.956;2023-05-10T01:22:18;4.85;;;3.65;;
13698;SDS011;6921;53.642;9.956;2023-05-10T01:27:34;6.13;;;3.72;;
13698;SDS011;6921;53.642;9.956;2023-05-10T01:32:36;4.07;;;3.65;;
13698;SDS011;6921;53.642;9.956;2023-05-10T01:34:47;5.45;;;3.70;;
13698;SDS011;6921;53.642;9.956;2023-05-10T01:36:58;5.13;;;3.47;;
13698;SDS011;6921;53.642;9.956;2023-05-10T01:39:09;4.85;;;3.80;;
13698;SDS011;6921;53.642;9.956;2023-05-10T01:41:18;4.82;;;3.70;;
13698;SDS011;6921;53.642;9.956;2023-05-10T01:43:28;5.05;;;3.72;;
13698;SDS011;6921;53.642;9.956;2023-05-10T01:45:39;4.88;;;4.00;;
13698;SDS011;6921;53.642;9.956;2023-05-10T01:47:52;4.38;;;3.80;;
13698;SDS011;6921;53.642;9.956;2023-05-10T01:50:02;3.95;;;3.38;;
13698;SDS011;6921;53.642;9.956;2023-05-10T01:52:08;3.75;;;3.45;;
13698;SDS011;6921;53.642;9.956;2023-05-10T01:54:14;4.05;;;3.65;;
13698;SDS011;6921;53.642;9.956;2023-05-10T01:56:22;6.30;;;3.90;;
13698;SDS011;6921;53.642;9.956;2023-05-10T01:58:31;5.65;;;4.05;;
13698;SDS011;6921;53.642;9.956;2023-05-10T02:00:36;6.45;;;3.90;;
13698;SDS011;6921;53.642;9.956;2023-05-10T02:02:44;4.72;;;3.63;;
13698;SDS011;6921;53.642;9.956;2023-05-10T02:04:51;5.00;;;3.42;;
13698;SDS011;6921;53.642;9.956;2023-05-10T02:06:56;5.65;;;3.80;;
13698;SDS011;6921;53.642;9.956;2023-05-10T02:09:00;5.20;;;3.42;;
13698;SDS011;6921;53.642;9.956;2023-05-10T02:11:05;4.50;;;3.95;;
13698;SDS011;6921;53.642;9.956;2023-05-10T02:13:09;5.28;;;4.00;;
13698;SDS011;6921;53.642;9.956;2023-05-10T02:15:15;5.97;;;4.10;;
13698;SDS011;6921;53.642;9.956;2023-05-10T02:17:27;4.50;;;4.10;;
13698;SDS011;6921;53.642;9.956;2023-05-10T02:19:32;3.67;;;3.35;;
13698;SDS011;6921;53.642;9.956;2023-05-10T02:21:37;4.75;;;3.90;;
13698;SDS011;6921;53.642;9.956;2023-05-10T02:23:42;4.22;;;3.63;;
13698;SDS011;6921;53.642;9.956;2023-05-10T02:25:46;4.15;;;3.80;;
13698;SDS011;6921;53.642;9.956;2023-05-10T02:27:52;6.47;;;4.10;;
13698;SDS011;6921;53.642;9.956;2023-05-10T02:29:58;3.90;;;3.60;;
13698;SDS011;6921;53.642;9.956;2023-05-10T02:32:01;3.90;;;3.60;;
13698;SDS011;6921;53.642;9.956;2023-05-10T02:34:05;4.07;;;3.70;;
13698;SDS011;6921;53.642;9.956;2023-05-10T02:36:10;4.78;;;4.00;;
13698;SDS011;6921;53.642;9.956;2023-05-10T02:38:16;4.40;;;3.92;;
13698;SDS011;6921;53.642;9.956;2023-05-10T02:40:22;4.30;;;3.90;;
13698;SDS011;6921;53.642;9.956;2023-05-10T02:42:29;4.20;;;3.72;;
13698;SDS011;6921;53.642;9.956;2023-05-10T02:44:35;4.20;;;3.80;;
13698;SDS011;6921;53.642;9.956;2023-05-10T02:46:39;4.10;;;3.72;;
13698;SDS011;6921;53.642;9.956;2023-05-10T02:48:43;6.13;;;4.40;;
13698;SDS011;6921;53.642;9.956;2023-05-10T02:50:46;4.47;;;3.75;;
13698;SDS011;6921;53.642;9.956;2023-05-10T02:52:54;4.55;;;3.58;;
13698;SDS011;6921;53.642;9.956;2023-05-10T02:55:04;5.15;;;4.03;;
13698;SDS011;6921;53.642;9.956;2023-05-10T02:57:08;4.55;;;3.80;;
13698;SDS011;6921;53.642;9.956;2023-05-10T02:59:19;5.95;;;4.10;;
13698;SDS011;6921;53.642;9.956;2023-05-10T03:01:23;5.13;;;4.10;;
13698;SDS011;6921;53.642;9.956;2023-05-10T03:03:27;9.65;;;3.70;;
13698;SDS011;6921;53.642;9.956;2023-05-10T03:05:30;9.63;;;4.10;;
13698;SDS011;6921;53.642;9.956;2023-05-10T03:07:37;4.47;;;3.63;;
13698;SDS011;6921;53.642;9.956;2023-05-10T03:09:41;4.93;;;4.15;;
13698;SDS011;6921;53.642;9.956;2023-05-10T03:11:49;4.18;;;3.67;;
13698;SDS011;6921;53.642;9.956;2023-05-10T03:14:03;4.72;;;4.25;;
13698;SDS011;6921;53.642;9.956;2023-05-10T03:16:14;5.05;;;4.00;;
13698;SDS011;6921;53.642;9.956;2023-05-10T03:18:21;4.72;;;3.88;;
13698;SDS011;6921;53.642;9.956;2023-05-10T03:20:31;5.63;;;4.10;;
13698;SDS011;6921;53.642;9.956;2023-05-10T03:22:40;6.32;;;3.90;;
13698;SDS011;6921;53.642;9.956;2023-05-10T03:24:47;7.15;;;4.05;;
13698;SDS011;6921;53.642;9.956;2023-05-10T03:26:54;7.00;;;3.83;;
13698;SDS011;6921;53.642;9.956;2023-05-10T03:28:58;5.63;;;3.80;;
13698;SDS011;6921;53.642;9.956;2023-05-10T03:31:02;4.68;;;4.25;;
13698;SDS011;6921;53.642;9.956;2023-05-10T03:33:08;4.07;;;3.53;;
13698;SDS011;6921;53.642;9.956;2023-05-10T03:35:12;4.68;;;3.90;;
13698;SDS011;6921;53.642;9.956;2023-05-10T03:37:16;4.70;;;3.97;;
13698;SDS011;6921;53.642;9.956;2023-05-10T03:39:20;4.75;;;3.97;;
13698;SDS011;6921;53.642;9.956;2023-05-10T03:41:23;4.10;;;3.70;;
13698;SDS011;6921;53.642;9.956;2023-05-10T03:43:28;6.68;;;4.07;;
13698;SDS011;6921;53.642;9.956;2023-05-10T03:45:32;5.07;;;3.78;;
13698;SDS011;6921;53.642;9.956;2023-05-10T03:47:36;5.45;;;4.15;;
13698;SDS011;6921;53.642;9.956;2023-05-10T03:49:39;5.75;;;3.53;;
13698;SDS011;6921;53.642;9.956;2023-05-10T03:51:43;4.30;;;3.88;;
13698;SDS011;6921;53.642;9.956;2023-05-10T03:53:48;5.88;;;4.15;;
13698;SDS011;6921;53.642;9.956;2023-05-10T03:55:51;4.60;;;4.10;;
13698;SDS011;6921;53.642;9.956;2023-05-10T03:57:55;5.22;;;4.30;;
13698;SDS011;6921;53.642;9.956;2023-05-10T04:00:01;4.45;;;4.00;;
13698;SDS011;6921;53.642;9.956;2023-05-10T04:02:04;6.95;;;4.07;;
13698;SDS011;6921;53.642;9.956;2023-05-10T04:04:08;3.97;;;3.60;;
13698;SDS011;6921;53.642;9.956;2023-05-10T04:06:12;4.07;;;3.28;;
13698;SDS011;6921;53.642;9.956;2023-05-10T04:08:15;5.93;;;4.18;;
13698;SDS011;6921;53.642;9.956;2023-05-10T04:10:19;4.65;;;4.25;;
13698;SDS011;6921;53.642;9.956;2023-05-10T04:12:22;5.25;;;4.10;;
13698;SDS011;6921;53.642;9.956;2023-05-10T04:14:26;4.05;;;3.58;;
13698;SDS011;6921;53.642;9.956;2023-05-10T04:16:35;7.30;;;4.22;;
13698;SDS011;6921;53.642;9.956;2023-05-10T04:18:38;6.88;;;4.13;;
13698;SDS011;6921;53.642;9.956;2023-05-10T04:20:42;6.15;;;4.20;;
13698;SDS011;6921;53.642;9.956;2023-05-10T04:22:46;4.60;;;3.97;;
13698;SDS011;6921;53.642;9.956;2023-05-10T04:24:50;4.95;;;3.78;;
13698;SDS011;6921;53.642;9.956;2023-05-10T04:26:53;4.80;;;4.28;;
13698;SDS011;6921;53.642;9.956;2023-05-10T04:28:58;4.95;;;3.55;;
13698;SDS011;6921;53.642;9.956;2023-05-10T04:31:02;4.20;;;3.80;;
13698;SDS011;6921;53.642;9.956;2023-05-10T04:33:07;3.90;;;3.50;;
13698;SDS011;6921;53.642;9.956;2023-05-10T04:35:11;4.70;;;3.90;;
13698;SDS011;6921;53.642;9.956;2023-05-10T04:37:17;4.15;;;3.80;;
13698;SDS011;6921;53.642;9.956;2023-05-10T04:39:20;4.88;;;3.80;;
13698;SDS011;6921;53.642;9.956;2023-05-10T04:41:24;4.65;;;3.85;;
13698;SDS011;6921;53.642;9.956;2023-05-10T04:43:27;4.30;;;3.90;;
13698;SDS011;6921;53.642;9.956;2023-05-10T04:45:31;4.60;;;4.10;;
13698;SDS011;6921;53.642;9.956;2023-05-10T04:47:35;5.15;;;4.20;;
13698;SDS011;6921;53.642;9.956;2023-05-10T04:49:40;7.32;;;4.28;;
13698;SDS011;6921;53.642;9.956;2023-05-10T04:51:44;4.85;;;4.10;;
13698;SDS011;6921;53.642;9.956;2023-05-10T04:53:48;5.13;;;3.83;;
13698;SDS011;6921;53.642;9.956;2023-05-10T04:56:05;5.45;;;4.22;;
13698;SDS011;6921;53.642;9.956;2023-05-10T04:58:09;6.18;;;4.32;;
13698;SDS011;6921;53.642;9.956;2023-05-10T05:00:13;5.53;;;3.92;;
13698;SDS011;6921;53.642;9.956;2023-05-10T05:02:17;6.22;;;4.05;;
13698;SDS011;6921;53.642;9.956;2023-05-10T05:04:20;5.32;;;4.18;;
13698;SDS011;6921;53.642;9.956;2023-05-10T05:06:26;6.00;;;4.32;;
13698;SDS011;6921;53.642;9.956;2023-05-10T05:08:30;5.82;;;4.47;;
13698;SDS011;6921;53.642;9.956;2023-05-10T05:10:34;5.13;;;4.05;;
13698;SDS011;6921;53.642;9.956;2023-05-10T05:12:38;5.45;;;4.10;;
13698;SDS011;6921;53.642;9.956;2023-05-10T05:14:43;4.13;;;3.72;;
13698;SDS011;6921;53.642;9.956;2023-05-10T05:16:47;5.70;;;4.20;;
13698;SDS011;6921;53.642;9.956;2023-05-10T05:18:50;4.65;;;4.07;;
13698;SDS011;6921;53.642;9.956;2023-05-10T05:20:54;4.57;;;4.15;;
13698;SDS011;6921;53.642;9.956;2023-05-10T05:22:59;6.78;;;4.63;;
13698;SDS011;6921;53.642;9.956;2023-05-10T05:25:03;6.35;;;3.92;;
13698;SDS011;6921;53.642;9.956;2023-05-10T05:27:07;4.70;;;4.20;;
13698;SDS011;6921;53.642;9.956;2023-05-10T05:29:11;5.45;;;4.03;;
13698;SDS011;6921;53.642;9.956;2023-05-10T05:31:15;6.10;;;4.50;;
13698;SDS011;6921;53.642;9.956;2023-05-10T05:33:20;4.70;;;3.97;;
13698;SDS011;6921;53.642;9.956;2023-05-10T05:35:24;4.50;;;4.05;;
13698;SDS011;6921;53.642;9.956;2023-05-10T05:37:28;7.07;;;4.22;;
13698;SDS011;6921;53.642;9.956;2023-05-10T05:39:33;4.97;;;4.50;;
13698;SDS011;6921;53.642;9.956;2023-05-10T05:41:36;4.75;;;3.97;;
13698;SDS011;6921;53.642;9.956;2023-05-10T05:43:43;4.75;;;4.35;;
13698;SDS011;6921;53.642;9.956;2023-05-10T05:45:47;5.78;;;4.30;;
13698;SDS011;6921;53.642;9.956;2023-05-10T05:47:54;5.47;;;4.25;;
13698;SDS011;6921;53.642;9.956;2023-05-10T05:49:58;5.00;;;4.32;;
13698;SDS011;6921;53.642;9.956;2023-05-10T05:52:03;4.20;;;3.80;;
13698;SDS011;6921;53.642;9.956;2023-05-10T05:54:07;4.63;;;4.22;;
13698;SDS011;6921;53.642;9.956;2023-05-10T05:56:12;4.45;;;4.05;;
13698;SDS011;6921;53.642;9.956;2023-05-10T05:58:16;4.40;;;4.00;;
13698;SDS011;6921;53.642;9.956;2023-05-10T06:00:22;5.55;;;3.97;;
13698;SDS011;6921;53.642;9.956;2023-05-10T06:02:27;5.53;;;4.10;;
13698;SDS011;6921;53.642;9.956;2023-05-10T06:04:31;7.50;;;4.43;;
13698;SDS011;6921;53.642;9.956;2023-05-10T06:06:36;5.28;;;4.00;;
13698;SDS011;6921;53.642;9.956;2023-05-10T06:08:39;4.95;;;4.45;;
13698;SDS011;6921;53.642;9.956;2023-05-10T06:10:45;4.65;;;4.25;;
13698;SDS011;6921;53.642;9.956;2023-05-10T06:12:50;5.15;;;4.00;;
13698;SDS011;6921;53.642;9.956;2023-05-10T06:14:55;6.65;;;4.18;;
13698;SDS011;6921;53.642;9.956;2023-05-10T06:17:00;4.20;;;3.80;;
13698;SDS011;6921;53.642;9.956;2023-05-10T06:19:06;5.78;;;3.85;;
13698;SDS011;6921;53.642;9.956;2023-05-10T06:21:10;4.78;;;4.00;;
13698;SDS011;6921;53.642;9.956;2023-05-10T06:23:14;4.88;;;4.30;;
13698;SDS011;6921;53.642;9.956;2023-05-10T06:25:18;6.85;;;3.80;;
13698;SDS011;6921;53.642;9.956;2023-05-10T06:27:24;4.47;;;4.07;;
13698;SDS011;6921;53.642;9.956;2023-05-10T06:29:29;5.72;;;4.20;;
13698;SDS011;6921;53.642;9.956;2023-05-10T06:31:32;7.63;;;4.22;;
13698;SDS011;6921;53.642;9.956;2023-05-10T06:33:38;5.40;;;4.30;;
13698;SDS011;6921;53.642;9.956;2023-05-10T06:35:42;4.82;;;4.40;;
13698;SDS011;6921;53.642;9.956;2023-05-10T06:37:45;4.82;;;4.05;;
13698;SDS011;6921;53.642;9.956;2023-05-10T06:39:50;5.45;;;4.28;;
13698;SDS011;6921;53.642;9.956;2023-05-10T06:41:56;4.30;;;3.90;;
13698;SDS011;6921;53.642;9.956;2023-05-10T06:44:00;6.38;;;4.63;;
13698;SDS011;6921;53.642;9.956;2023-05-10T06:46:07;4.90;;;4.38;;
13698;SDS011;6921;53.642;9.956;2023-05-10T06:48:11;5.50;;;4.72;;
13698;SDS011;6921;53.642;9.956;2023-05-10T06:50:22;4.38;;;3.97;;
13698;SDS011;6921;53.642;9.956;2023-05-10T06:52:26;4.63;;;4.22;;
13698;SDS011;6921;53.642;9.956;2023-05-10T06:54:30;4.93;;;4.20;;
13698;SDS011;6921;53.642;9.956;2023-05-10T06:56:35;4.78;;;4.28;;
13698;SDS011;6921;53.642;9.956;2023-05-10T06:58:40;8.07;;;4.30;;
13698;SDS011;6921;53.642;9.956;2023-05-10T07:00:44;5.05;;;4.30;;
13698;SDS011;6921;53.642;9.956;2023-05-10T07:02:51;6.82;;;4.20;;
13698;SDS011;6921;53.642;9.956;2023-05-10T07:04:54;5.07;;;4.20;;
13698;SDS011;6921;53.642;9.956;2023-05-10T07:07:02;4.60;;;4.07;;
13698;SDS011;6921;53.642;9.956;2023-05-10T07:09:06;7.07;;;5.50;;
13698;SDS011;6921;53.642;9.956;2023-05-10T07:11:10;6.05;;;4.30;;
13698;SDS011;6921;53.642;9.956;2023-05-10T07:13:15;6.30;;;3.95;;
13698;SDS011;6921;53.642;9.956;2023-05-10T07:15:19;5.30;;;4.80;;
13698;SDS011;6921;53.642;9.956;2023-05-10T07:17:24;7.32;;;5.32;;
13698;SDS011;6921;53.642;9.956;2023-05-10T07:19:29;4.40;;;4.00;;
13698;SDS011;6921;53.642;9.956;2023-05-10T07:21:36;4.93;;;4.43;;
13698;SDS011;6921;53.642;9.956;2023-05-10T07:23:41;7.53;;;4.95;;
13698;SDS011;6921;53.642;9.956;2023-05-10T07:25:45;6.90;;;5.97;;
13698;SDS011;6921;53.642;9.956;2023-05-10T07:27:49;6.75;;;5.78;;
13698;SDS011;6921;53.642;9.956;2023-05-10T07:29:52;5.88;;;5.35;;
13698;SDS011;6921;53.642;9.956;2023-05-10T07:31:57;7.15;;;6.18;;
13698;SDS011;6921;53.642;9.956;2023-05-10T07:34:01;15.55;;;14.30;;
13698;SDS011;6921;53.642;9.956;2023-05-10T07:36:07;7.60;;;5.20;;
13698;SDS011;6921;53.642;9.956;2023-05-10T07:38:12;8.98;;;8.15;;
13698;SDS011;6921;53.642;9.956;2023-05-10T07:40:16;5.45;;;4.95;;
13698;SDS011;6921;53.642;9.956;2023-05-10T07:42:19;12.77;;;11.82;;
13698;SDS011;6921;53.642;9.956;2023-05-10T07:44:23;5.88;;;5.25;;
13698;SDS011;6921;53.642;9.956;2023-05-10T07:46:28;6.45;;;4.45;;
13698;SDS011;6921;53.642;9.956;2023-05-10T07:48:32;7.43;;;5.82;;
13698;SDS011;6921;53.642;9.956;2023-05-10T07:50:36;5.90;;;4.55;;
13698;SDS011;6921;53.642;9.956;2023-05-10T07:52:41;4.97;;;4.32;;
13698;SDS011;6921;53.642;9.956;2023-05-10T07:54:46;5.00;;;4.00;;
13698;SDS011;6921;53.642;9.956;2023-05-10T07:56:49;4.88;;;4.38;;
13698;SDS011;6921;53.642;9.956;2023-05-10T07:58:54;5.38;;;4.90;;
13698;SDS011;6921;53.642;9.956;2023-05-10T08:00:58;5.32;;;4.82;;
13698;SDS011;6921;53.642;9.956;2023-05-10T08:03:04;9.77;;;9.07;;
13698;SDS011;6921;53.642;9.956;2023-05-10T08:05:09;5.80;;;5.20;;
13698;SDS011;6921;53.642;9.956;2023-05-10T08:07:14;9.43;;;4.43;;
13698;SDS011;6921;53.642;9.956;2023-05-10T08:09:19;4.95;;;4.40;;
13698;SDS011;6921;53.642;9.956;2023-05-10T08:11:25;6.43;;;5.80;;
13698;SDS011;6921;53.642;9.956;2023-05-10T08:13:30;7.97;;;4.90;;
13698;SDS011;6921;53.642;9.956;2023-05-10T08:15:34;7.68;;;4.72;;
13698;SDS011;6921;53.642;9.956;2023-05-10T08:17:37;8.60;;;7.70;;
13698;SDS011;6921;53.642;9.956;2023-05-10T08:19:42;12.80;;;11.65;;
13698;SDS011;6921;53.642;9.956;2023-05-10T08:21:48;5.50;;;5.00;;
13698;SDS011;6921;53.642;9.956;2023-05-10T08:23:53;4.55;;;4.15;;
13698;SDS011;6921;53.642;9.956;2023-05-10T08:25:58;6.28;;;5.70;;
13698;SDS011;6921;53.642;9.956;2023-05-10T08:28:02;9.48;;;8.80;;
13698;SDS011;6921;53.642;9.956;2023-05-10T08:30:06;6.00;;;4.78;;
13698;SDS011;6921;53.642;9.956;2023-05-10T08:32:11;5.75;;;4.75;;
13698;SDS011;6921;53.642;9.956;2023-05-10T08:34:16;7.63;;;6.78;;
13698;SDS011;6921;53.642;9.956;2023-05-10T08:36:26;7.22;;;4.57;;
13698;SDS011;6921;53.642;9.956;2023-05-10T08:38:30;8.50;;;6.13;;
13698;SDS011;6921;53.642;9.956;2023-05-10T08:40:34;9.95;;;4.45;;
13698;SDS011;6921;53.642;9.956;2023-05-10T08:42:42;7.15;;;4.30;;
13698;SDS011;6921;53.642;9.956;2023-05-10T08:45:02;5.43;;;4.93;;
13698;SDS011;6921;53.642;9.956;2023-05-10T08:47:32;7.85;;;5.15;;
13698;SDS011;6921;53.642;9.956;2023-05-10T08:49:36;5.75;;;5.18;;
13698;SDS011;6921;53.642;9.956;2023-05-10T08:51:42;6.97;;;5.07;;
13698;SDS011;6921;53.642;9.956;2023-05-10T08:53:52;7.15;;;5.32;;
13698;SDS011;6921;53.642;9.956;2023-05-10T08:55:57;6.95;;;4.82;;
13698;SDS011;6921;53.642;9.956;2023-05-10T08:58:02;7.45;;;5.30;;
13698;SDS011;6921;53.642;9.956;2023-05-10T09:00:08;7.00;;;5.50;;
13698;SDS011;6921;53.642;9.956;2023-05-10T09:02:11;6.82;;;4.75;;
13698;SDS011;6921;53.642;9.956;2023-05-10T09:04:19;5.43;;;4.93;;
13698;SDS011;6921;53.642;9.956;2023-05-10T09:06:22;6.80;;;5.53;;
13698;SDS011;6921;53.642;9.956;2023-05-10T09:08:26;8.60;;;6.18;;
13698;SDS011;6921;53.642;9.956;2023-05-10T09:10:32;6.60;;;6.00;;
13698;SDS011;6921;53.642;9.956;2023-05-10T09:12:36;12.93;;;11.90;;
13698;SDS011;6921;53.642;9.956;2023-05-10T09:14:41;7.45;;;6.82;;
13698;SDS011;6921;53.642;9.956;2023-05-10T09:16:46;7.20;;;6.65;;
13698;SDS011;6921;53.642;9.956;2023-05-10T09:18:50;9.75;;;6.88;;
13698;SDS011;6921;53.642;9.956;2023-05-10T09:20:54;7.93;;;7.35;;
13698;SDS011;6921;53.642;9.956;2023-05-10T09:22:57;7.60;;;6.80;;
13698;SDS011;6921;53.642;9.956;2023-05-10T09:25:04;8.57;;;7.90;;
13698;SDS011;6921;53.642;9.956;2023-05-10T09:27:09;14.02;;;12.85;;
13698;SDS011;6921;53.642;9.956;2023-05-10T09:29:13;9.15;;;8.18;;
13698;SDS011;6921;53.642;9.956;2023-05-10T09:31:19;13.65;;;12.35;;
13698;SDS011;6921;53.642;9.956;2023-05-10T09:33:23;12.05;;;11.07;;
13698;SDS011;6921;53.642;9.956;2023-05-10T09:35:28;6.93;;;6.28;;
13698;SDS011;6921;53.642;9.956;2023-05-10T09:37:32;8.52;;;7.72;;
13698;SDS011;6921;53.642;9.956;2023-05-10T09:39:37;18.05;;;16.63;;
13698;SDS011;6921;53.642;9.956;2023-05-10T09:41:41;10.02;;;9.07;;
13698;SDS011;6921;53.642;9.956;2023-05-10T09:43:45;9.50;;;8.57;;
13698;SDS011;6921;53.642;9.956;2023-05-10T09:45:49;9.38;;;8.68;;
13698;SDS011;6921;53.642;9.956;2023-05-10T09:47:54;10.70;;;9.50;;
13698;SDS011;6921;53.642;9.956;2023-05-10T09:50:00;9.50;;;8.38;;
13698;SDS011;6921;53.642;9.956;2023-05-10T09:52:06;8.75;;;8.05;;
13698;SDS011;6921;53.642;9.956;2023-05-10T09:54:11;8.38;;;7.18;;
13698;SDS011;6921;53.642;9.956;2023-05-10T09:58:42;7.22;;;6.53;;
13698;SDS011;6921;53.642;9.956;2023-05-10T10:00:54;7.53;;;6.20;;
13698;SDS011;6921;53.642;9.956;2023-05-10T10:03:02;6.82;;;6.22;;
13698;SDS011;6921;53.642;9.956;2023-05-10T10:05:07;8.52;;;6.57;;
13698;SDS011;6921;53.642;9.956;2023-05-10T10:07:11;9.82;;;6.32;;
13698;SDS011;6921;53.642;9.956;2023-05-10T10:09:16;8.35;;;6.38;;
13698;SDS011;6921;53.642;9.956;2023-05-10T10:11:21;7.82;;;6.95;;
13698;SDS011;6921;53.642;9.956;2023-05-10T10:13:26;8.57;;;7.68;;
13698;SDS011;6921;53.642;9.956;2023-05-10T10:15:32;9.63;;;6.82;;
13698;SDS011;6921;53.642;9.956;2023-05-10T10:17:37;7.45;;;6.70;;
13698;SDS011;6921;53.642;9.956;2023-05-10T10:19:43;8.32;;;7.05;;
13698;SDS011;6921;53.642;9.956;2023-05-10T10:21:47;8.10;;;7.28;;
13698;SDS011;6921;53.642;9.956;2023-05-10T10:23:51;10.25;;;7.30;;
13698;SDS011;6921;53.642;9.956;2023-05-10T10:25:57;9.55;;;7.53;;
13698;SDS011;6921;53.642;9.956;2023-05-10T10:28:05;8.48;;;7.57;;
13698;SDS011;6921;53.642;9.956;2023-05-10T10:30:21;9.20;;;7.93;;
13698;SDS011;6921;53.642;9.956;2023-05-10T10:32:33;10.00;;;8.30;;
13698;SDS011;6921;53.642;9.956;2023-05-10T10:34:39;9.32;;;7.70;;
13698;SDS011;6921;53.642;9.956;2023-05-10T10:36:45;10.25;;;8.30;;
13698;SDS011;6921;53.642;9.956;2023-05-10T10:38:59;10.43;;;8.50;;
13698;SDS011;6921;53.642;9.956;2023-05-10T10:41:09;10.18;;;8.73;;
13698;SDS011;6921;53.642;9.956;2023-05-10T10:43:20;10.55;;;9.55;;
13698;SDS011;6921;53.642;9.956;2023-05-10T10:45:25;10.23;;;9.23;;
13698;SDS011;6921;53.642;9.956;2023-05-10T10:47:29;11.57;;;8.93;;
13698;SDS011;6921;53.642;9.956;2023-05-10T10:49:38;10.45;;;8.50;;
13698;SDS011;6921;53.642;9.956;2023-05-10T10:54:33;12.45;;;9.38;;
13698;SDS011;6921;53.642;9.956;2023-05-10T10:56:38;11.77;;;9.57;;
13698;SDS011;6921;53.642;9.956;2023-05-10T10:58:42;10.95;;;9.07;;
13698;SDS011;6921;53.642;9.956;2023-05-10T11:00:52;11.10;;;9.65;;
13698;SDS011;6921;53.642;9.956;2023-05-10T11:03:13;9.82;;;8.82;;
13698;SDS011;6921;53.642;9.956;2023-05-10T11:05:33;10.35;;;8.38;;
13698;SDS011;6921;53.642;9.956;2023-05-10T11:07:50;10.13;;;9.13;;
13698;SDS011;6921;53.642;9.956;2023-05-10T11:09:55;11.98;;;10.05;;
13698;SDS011;6921;53.642;9.956;2023-05-10T11:12:08;10.23;;;9.15;;
13698;SDS011;6921;53.642;9.956;2023-05-10T11:14:13;12.00;;;9.85;;
13698;SDS011;6921;53.642;9.956;2023-05-10T11:16:18;9.98;;;8.77;;
13698;SDS011;6921;53.642;9.956;2023-05-10T11:18:26;11.25;;;10.05;;
13698;SDS011;6921;53.642;9.956;2023-05-10T11:20:38;12.38;;;9.65;;
13698;SDS011;6921;53.642;9.956;2023-05-10T11:22:51;9.77;;;8.77;;
13698;SDS011;6921;53.642;9.956;2023-05-10T11:24:59;10.63;;;9.52;;
13698;SDS011;6921;53.642;9.956;2023-05-10T11:27:02;10.73;;;9.07;;
13698;SDS011;6921;53.642;9.956;2023-05-10T11:29:07;12.90;;;9.93;;
13698;SDS011;6921;53.642;9.956;2023-05-10T11:31:12;10.88;;;9.77;;
13698;SDS011;6921;53.642;9.956;2023-05-10T11:33:17;12.25;;;10.07;;
13698;SDS011;6921;53.642;9.956;2023-05-10T11:35:20;12.43;;;11.13;;
13698;SDS011;6921;53.642;9.956;2023-05-10T11:37:27;12.77;;;10.38;;
13698;SDS011;6921;53.642;9.956;2023-05-10T11:39:35;11.15;;;9.95;;
13698;SDS011;6921;53.642;9.956;2023-05-10T11:41:40;12.93;;;11.10;;
13698;SDS011;6921;53.642;9.956;2023-05-10T11:43:45;12.05;;;10.82;;
13698;SDS011;6921;53.642;9.956;2023-05-10T11:45:52;11.05;;;10.05;;
13698;SDS011;6921;53.642;9.956;2023-05-10T11:47:56;11.52;;;10.35;;
13698;SDS011;6921;53.642;9.956;2023-05-10T11:50:01;11.18;;;9.60;;
13698;SDS011;6921;53.642;9.956;2023-05-10T11:52:05;10.57;;;9.60;;
13698;SDS011;6921;53.642;9.956;2023-05-10T11:54:10;13.07;;;10.32;;
13698;SDS011;6921;53.642;9.956;2023-05-10T11:56:14;11.65;;;9.95;;
13698;SDS011;6921;53.642;9.956;2023-05-10T11:58:19;10.82;;;9.73;;
13698;SDS011;6921;53.642;9.956;2023-05-10T12:00:24;11.20;;;10.10;;
13698;SDS011;6921;53.642;9.956;2023-05-10T12:02:29;14.18;;;11.05;;
13698;SDS011;6921;53.642;9.956;2023-05-10T12:04:33;11.98;;;10.48;;
13698;SDS011;6921;53.642;9.956;2023-05-10T12:06:37;11.45;;;10.10;;
13698;SDS011;6921;53.642;9.956;2023-05-10T12:08:44;11.07;;;9.85;;
13698;SDS011;6921;53.642;9.956;2023-05-10T12:10:48;10.90;;;9.82;;
13698;SDS011;6921;53.642;9.956;2023-05-10T12:12:55;12.70;;;10.43;;
13698;SDS011;6921;53.642;9.956;2023-05-10T12:15:01;13.30;;;11.63;;
13698;SDS011;6921;53.642;9.956;2023-05-10T12:17:05;12.90;;;11.55;;
13698;SDS011;6921;53.642;9.956;2023-05-10T12:19:09;14.60;;;13.20;;
13698;SDS011;6921;53.642;9.956;2023-05-10T12:21:13;15.38;;;12.90;;
13698;SDS011;6921;53.642;9.956;2023-05-10T12:23:21;14.73;;;13.23;;
13698;SDS011;6921;53.642;9.956;2023-05-10T12:25:29;13.35;;;12.05;;
13698;SDS011;6921;53.642;9.956;2023-05-10T12:27:33;14.07;;;12.60;;
13698;SDS011;6921;53.642;9.956;2023-05-10T12:29:41;15.20;;;12.90;;
13698;SDS011;6921;53.642;9.956;2023-05-10T12:31:51;15.52;;;13.80;;
13698;SDS011;6921;53.642;9.956;2023-05-10T12:33:55;14.95;;;13.35;;
13698;SDS011;6921;53.642;9.956;2023-05-10T12:35:58;14.70;;;12.50;;
13698;SDS011;6921;53.642;9.956;2023-05-10T12:40:32;13.18;;;11.88;;
13698;SDS011;6921;53.642;9.956;2023-05-10T12:42:35;15.35;;;11.85;;
13698;SDS011;6921;53.642;9.956;2023-05-10T12:44:39;13.35;;;11.95;;
13698;SDS011;6921;53.642;9.956;2023-05-10T12:46:43;13.32;;;12.02;;
13698;SDS011;6921;53.642;9.956;2023-05-10T12:48:48;13.13;;;11.68;;
13698;SDS011;6921;53.642;9.956;2023-05-10T12:51:08;11.05;;;9.95;;
13698;SDS011;6921;53.642;9.956;2023-05-10T12:53:14;11.93;;;10.70;;
13698;SDS011;6921;53.642;9.956;2023-05-10T12:55:18;10.48;;;9.45;;
13698;SDS011;6921;53.642;9.956;2023-05-10T12:57:22;11.82;;;10.10;;
13698;SDS011;6921;53.642;9.956;2023-05-10T12:59:26;10.68;;;8.90;;